createdAt,value
2023-03-31T00:01:52.991Z,2.43
2023-03-31T00:04:24.035Z,2.03
2023-03-31T00:06:54.399Z,2.40
2023-03-31T00:09:22.152Z,2.63
2023-03-31T00:11:50.272Z,2.67
2023-03-31T00:14:18.312Z,2.90
2023-03-31T00:16:45.305Z,2.63
2023-03-31T00:19:19.981Z,2.50
2023-03-31T00:21:48.074Z,2.43
2023-03-31T00:24:16.193Z,2.20
2023-03-31T00:26:43.260Z,2.30
2023-03-31T00:29:12.114Z,2.13
2023-03-31T00:31:41.702Z,1.97
2023-03-31T00:34:08.640Z,2.37
2023-03-31T00:36:36.775Z,2.10
2023-03-31T00:39:08.747Z,2.60
2023-03-31T00:41:37.106Z,2.10
2023-03-31T00:44:13.456Z,2.00
2023-03-31T00:46:52.518Z,1.90
2023-03-31T00:49:41.571Z,2.10
2023-03-31T00:52:13.523Z,2.13
2023-03-31T00:54:42.790Z,2.00
2023-03-31T00:57:10.300Z,1.87
2023-03-31T00:59:42.317Z,2.00
2023-03-31T01:02:11.939Z,2.37
2023-03-31T01:04:44.649Z,1.90
2023-03-31T01:07:22.983Z,1.87
2023-03-31T01:09:51.646Z,1.90
2023-03-31T01:12:19.165Z,2.20
2023-03-31T01:14:46.224Z,1.90
2023-03-31T01:17:19.072Z,2.53
2023-03-31T01:20:01.537Z,2.10
2023-03-31T01:22:54.413Z,2.03
2023-03-31T01:25:54.010Z,1.90
2023-03-31T01:28:25.064Z,2.00
2023-03-31T01:31:03.012Z,2.07
2023-03-31T01:33:59.906Z,2.00
2023-03-31T01:36:44.153Z,2.10
2023-03-31T01:39:51.850Z,2.03
2023-03-31T01:42:53.334Z,1.80
2023-03-31T01:45:48.725Z,2.30
2023-03-31T01:48:19.133Z,2.00
2023-03-31T01:50:56.283Z,1.80
2023-03-31T01:53:50.584Z,1.87
2023-03-31T01:56:25.874Z,1.70
2023-03-31T01:59:21.080Z,1.77
2023-03-31T02:01:57.358Z,1.90
2023-03-31T02:04:30.922Z,1.80
2023-03-31T02:07:05.863Z,2.10
2023-03-31T02:09:37.820Z,1.50
2023-03-31T02:12:08.406Z,1.80
2023-03-31T02:14:37.947Z,1.90
2023-03-31T02:17:08.245Z,1.57
2023-03-31T02:19:39.672Z,1.70
2023-03-31T02:22:08.880Z,1.73
2023-03-31T02:24:38.383Z,1.93
2023-03-31T02:27:17.602Z,1.67
2023-03-31T02:29:44.486Z,1.60
2023-03-31T02:32:32.176Z,1.90
2023-03-31T02:35:00.888Z,1.80
2023-03-31T02:37:29.020Z,1.63
2023-03-31T02:39:57.956Z,1.67
2023-03-31T02:42:25.003Z,1.70
2023-03-31T02:44:52.200Z,2.17
2023-03-31T02:47:21.937Z,1.80
2023-03-31T02:49:55.219Z,1.60
2023-03-31T02:52:34.117Z,1.63
2023-03-31T02:55:19.708Z,1.97
2023-03-31T02:58:18.226Z,2.17
2023-03-31T03:01:06.802Z,1.83
2023-03-31T03:03:36.549Z,1.90
2023-03-31T03:06:44.128Z,1.87
2023-03-31T03:09:36.163Z,1.80
2023-03-31T03:12:19.304Z,1.80
2023-03-31T03:14:52.705Z,1.93
2023-03-31T03:17:32.217Z,1.70
2023-03-31T03:20:08.239Z,1.90
2023-03-31T03:22:35.724Z,1.60
2023-03-31T03:25:02.273Z,1.30
2023-03-31T03:27:29.059Z,1.77
2023-03-31T03:29:56.082Z,1.83
2023-03-31T03:32:22.663Z,1.90
2023-03-31T03:34:49.277Z,1.60
2023-03-31T03:37:15.928Z,1.50
2023-03-31T03:39:42.563Z,1.53
2023-03-31T03:42:09.169Z,2.00
2023-03-31T03:44:35.747Z,1.70
2023-03-31T03:47:02.486Z,1.40
2023-03-31T03:49:29.094Z,1.50
2023-03-31T03:51:55.813Z,1.47
2023-03-31T03:54:22.427Z,1.60
2023-03-31T03:56:49.051Z,1.80
2023-03-31T03:59:16.035Z,2.10
2023-03-31T04:01:42.650Z,1.57
2023-03-31T04:04:09.244Z,1.57
2023-03-31T04:06:35.865Z,1.57
2023-03-31T04:09:03.869Z,1.60
2023-03-31T04:11:30.638Z,1.67
2023-03-31T04:13:57.184Z,1.73
2023-03-31T04:16:25.348Z,1.53
2023-03-31T04:18:56.629Z,1.83
2023-03-31T04:21:23.882Z,1.60
2023-03-31T04:23:58.691Z,1.60
2023-03-31T04:26:30.816Z,1.73
2023-03-31T04:29:00.476Z,1.83
2023-03-31T04:31:27.514Z,1.83
2023-03-31T04:33:54.966Z,1.70
2023-03-31T04:36:22.238Z,1.80
2023-03-31T04:38:56.431Z,2.07
2023-03-31T04:41:24.310Z,2.03
2023-03-31T04:43:51.204Z,1.97
2023-03-31T04:46:17.872Z,1.60
2023-03-31T04:48:44.483Z,1.80
2023-03-31T04:51:11.113Z,1.83
2023-03-31T04:53:37.681Z,1.60
2023-03-31T04:56:04.868Z,1.77
2023-03-31T04:58:31.698Z,2.00
2023-03-31T05:00:58.262Z,1.87
2023-03-31T05:03:24.915Z,1.80
2023-03-31T05:05:51.631Z,1.77
2023-03-31T05:08:18.318Z,1.80
2023-03-31T05:10:44.944Z,1.80
2023-03-31T05:13:11.588Z,1.60
2023-03-31T05:15:41.572Z,2.00
2023-03-31T05:18:08.503Z,1.90
2023-03-31T05:20:35.445Z,1.97
2023-03-31T05:23:02.059Z,1.90
2023-03-31T05:25:32.735Z,1.90
2023-03-31T05:28:00.199Z,2.47
2023-03-31T05:30:30.814Z,1.83
2023-03-31T05:32:58.482Z,2.20
2023-03-31T05:35:25.217Z,1.60
2023-03-31T05:37:52.047Z,2.00
2023-03-31T05:40:18.736Z,2.37
2023-03-31T05:42:45.339Z,2.10
2023-03-31T05:45:12.655Z,1.80
2023-03-31T05:47:39.444Z,1.90
2023-03-31T05:50:08.812Z,2.20
2023-03-31T05:52:35.848Z,2.50
2023-03-31T05:55:02.985Z,2.20
2023-03-31T05:57:29.731Z,2.20
2023-03-31T05:59:56.373Z,2.00
2023-03-31T06:02:23.045Z,2.07
2023-03-31T06:04:50.250Z,1.77
2023-03-31T06:07:17.818Z,2.23
2023-03-31T06:09:45.625Z,2.00
2023-03-31T06:12:12.212Z,1.80
2023-03-31T06:14:38.776Z,1.60
2023-03-31T06:17:05.390Z,2.00
2023-03-31T06:19:31.945Z,2.47
2023-03-31T06:21:58.713Z,2.20
2023-03-31T06:24:25.382Z,2.00
2023-03-31T06:26:53.769Z,2.10
2023-03-31T06:29:21.094Z,2.17
2023-03-31T06:31:47.714Z,2.10
2023-03-31T06:34:14.308Z,1.70
2023-03-31T06:36:41.911Z,2.10
2023-03-31T06:39:08.526Z,1.87
2023-03-31T06:41:35.242Z,2.03
2023-03-31T06:44:01.827Z,2.20
2023-03-31T06:46:28.472Z,3.03
2023-03-31T06:48:55.163Z,2.60
2023-03-31T06:51:21.884Z,3.20
2023-03-31T06:53:48.443Z,3.30
2023-03-31T06:56:15.401Z,2.60
2023-03-31T06:58:42.005Z,2.50
2023-03-31T07:01:08.923Z,3.00
2023-03-31T07:03:36.294Z,2.47
2023-03-31T07:06:02.993Z,2.40
2023-03-31T07:08:29.546Z,2.70
2023-03-31T07:10:58.587Z,2.50
2023-03-31T07:13:26.192Z,2.80
2023-03-31T07:15:53.242Z,2.67
2023-03-31T07:18:20.269Z,3.03
2023-03-31T07:20:50.794Z,2.43
2023-03-31T07:23:18.089Z,3.40
2023-03-31T07:25:46.002Z,2.07
2023-03-31T07:28:12.565Z,2.30
2023-03-31T07:30:40.702Z,2.60
2023-03-31T07:33:07.948Z,2.43
2023-03-31T07:35:38.391Z,2.40
2023-03-31T07:38:05.271Z,2.37
2023-03-31T07:40:31.882Z,2.27
2023-03-31T07:42:58.505Z,2.33
2023-03-31T07:45:26.266Z,2.20
2023-03-31T07:47:53.423Z,2.50
2023-03-31T07:50:21.139Z,2.50
2023-03-31T07:52:47.822Z,2.27
2023-03-31T07:55:15.737Z,2.87
2023-03-31T07:57:43.436Z,2.33
2023-03-31T08:00:12.534Z,2.57
2023-03-31T08:02:42.691Z,2.53
2023-03-31T08:05:11.903Z,2.77
2023-03-31T08:07:41.676Z,2.83
2023-03-31T08:10:11.348Z,2.30
2023-03-31T08:12:37.908Z,2.00
2023-03-31T08:15:05.233Z,2.43
2023-03-31T08:17:31.863Z,2.40
2023-03-31T08:20:01.638Z,2.30
2023-03-31T08:22:30.509Z,2.30
2023-03-31T08:24:57.088Z,2.35
2023-03-31T08:27:23.694Z,2.40
2023-03-31T08:29:50.337Z,2.58
2023-03-31T08:32:16.881Z,2.07
2023-03-31T08:34:43.751Z,2.33
2023-03-31T08:37:10.460Z,2.45
2023-03-31T08:39:37.300Z,1.97
2023-03-31T08:42:36.372Z,2.50
2023-03-31T08:45:28.914Z,2.75
2023-03-31T08:48:25.960Z,2.20
2023-03-31T08:51:05.709Z,1.85
2023-03-31T08:53:43.817Z,2.58
2023-03-31T08:56:17.003Z,1.70
2023-03-31T08:58:46.203Z,2.50
2023-03-31T09:01:47.734Z,1.90
2023-03-31T09:04:30.885Z,1.90
2023-03-31T09:07:07.471Z,2.40
2023-03-31T09:09:57.675Z,1.90
2023-03-31T09:12:38.207Z,1.92
2023-03-31T09:15:10.805Z,1.90
2023-03-31T09:17:46.130Z,1.90
2023-03-31T09:20:22.283Z,2.00
2023-03-31T09:22:52.822Z,2.10
2023-03-31T09:25:26.452Z,2.10
2023-03-31T09:27:57.089Z,1.85
2023-03-31T09:30:30.570Z,2.50
2023-03-31T09:33:17.155Z,2.08
2023-03-31T09:35:45.982Z,2.13
2023-03-31T09:38:15.695Z,2.10
2023-03-31T09:40:43.180Z,2.35
2023-03-31T09:43:23.859Z,1.85
2023-03-31T09:46:14.687Z,2.08
2023-03-31T09:48:39.862Z,1.70
2023-03-31T09:51:20.526Z,1.80
2023-03-31T09:54:29.376Z,2.00
2023-03-31T09:56:56.040Z,1.85
2023-03-31T09:59:30.528Z,1.80
2023-03-31T10:02:00.444Z,2.40
2023-03-31T10:04:34.440Z,2.80
2023-03-31T10:07:04.068Z,3.10
2023-03-31T10:09:33.606Z,2.10
2023-03-31T10:12:07.991Z,1.98
2023-03-31T10:15:02.152Z,2.03
2023-03-31T10:17:29.054Z,1.70
2023-03-31T10:20:19.614Z,1.65
2023-03-31T10:22:46.373Z,1.70
2023-03-31T10:25:22.118Z,2.03
2023-03-31T10:27:53.051Z,2.13
2023-03-31T10:30:35.313Z,1.70
2023-03-31T10:33:19.035Z,1.80
2023-03-31T10:35:51.040Z,2.07
2023-03-31T10:38:26.204Z,1.77
2023-03-31T10:40:56.406Z,1.80
2023-03-31T10:43:52.866Z,2.10
2023-03-31T10:46:20.265Z,2.15
2023-03-31T10:48:47.620Z,1.87
2023-03-31T10:51:25.623Z,2.33
2023-03-31T10:53:55.095Z,1.80
2023-03-31T10:56:36.317Z,2.03
2023-03-31T10:59:23.589Z,2.20
2023-03-31T11:02:39.238Z,1.90
2023-03-31T11:05:17.991Z,2.30
2023-03-31T11:08:24.349Z,2.10
2023-03-31T11:11:17.735Z,1.93
2023-03-31T11:14:07.889Z,2.50
2023-03-31T11:16:55.225Z,1.92
2023-03-31T11:19:39.732Z,2.07
2023-03-31T11:22:20.636Z,1.90
2023-03-31T11:25:05.999Z,2.03
2023-03-31T11:27:55.391Z,2.00
2023-03-31T11:30:32.216Z,1.80
2023-03-31T11:33:26.780Z,1.90
2023-03-31T11:36:26.015Z,2.50
2023-03-31T11:39:15.010Z,1.90
2023-03-31T11:41:52.131Z,1.55
2023-03-31T11:44:20.261Z,1.50
2023-03-31T11:47:03.319Z,1.48
2023-03-31T11:49:38.743Z,2.20
2023-03-31T11:52:16.023Z,1.80
2023-03-31T11:54:54.889Z,1.65
2023-03-31T11:58:01.020Z,1.90
2023-03-31T12:00:32.558Z,2.30
2023-03-31T12:03:21.563Z,2.03
2023-03-31T12:05:57.253Z,2.00
2023-03-31T12:08:35.495Z,1.90
2023-03-31T12:11:09.956Z,2.22
2023-03-31T12:13:58.781Z,2.00
2023-03-31T12:16:45.913Z,1.90
2023-03-31T12:19:30.099Z,2.13
2023-03-31T12:22:13.571Z,2.60
2023-03-31T12:24:40.396Z,2.95
2023-03-31T12:27:27.631Z,2.60
2023-03-31T12:30:15.659Z,2.73
2023-03-31T12:32:48.707Z,2.80
2023-03-31T12:35:29.439Z,2.83
2023-03-31T12:38:27.785Z,3.00
2023-03-31T12:41:28.347Z,3.67
2023-03-31T12:44:15.799Z,3.47
2023-03-31T12:47:24.345Z,3.00
2023-03-31T12:50:11.657Z,3.00
2023-03-31T12:53:08.831Z,2.20
2023-03-31T12:55:38.226Z,1.80
2023-03-31T12:58:23.074Z,1.60
2023-03-31T13:01:16.105Z,1.10
2023-03-31T13:03:51.765Z,0.90
2023-03-31T13:06:27.372Z,1.30
2023-03-31T13:09:00.780Z,1.30
2023-03-31T13:11:36.477Z,1.10
2023-03-31T13:14:20.792Z,1.13
2023-03-31T13:16:49.323Z,1.47
2023-03-31T13:19:34.752Z,1.47
2023-03-31T13:22:03.900Z,1.50
2023-03-31T13:24:32.238Z,1.70
2023-03-31T13:27:19.848Z,1.73
2023-03-31T13:29:46.612Z,2.30
2023-03-31T13:32:19.274Z,2.50
2023-03-31T13:35:06.354Z,2.60
2023-03-31T13:38:00.908Z,2.50
2023-03-31T13:40:53.347Z,2.90
2023-03-31T13:44:01.052Z,3.00
2023-03-31T13:46:51.624Z,3.00
2023-03-31T13:49:44.240Z,3.30
2023-03-31T13:52:12.470Z,3.80
2023-03-31T13:55:13.955Z,4.57
2023-03-31T13:58:19.981Z,5.20
2023-03-31T14:01:36.433Z,4.10
2023-03-31T14:04:16.104Z,2.87
2023-03-31T14:07:07.452Z,3.07
2023-03-31T14:09:39.850Z,2.50
2023-03-31T14:12:21.833Z,3.10
2023-03-31T14:14:52.297Z,2.57
2023-03-31T14:17:19.413Z,1.70
2023-03-31T14:20:27.170Z,1.77
2023-03-31T14:23:22.503Z,1.40
2023-03-31T14:26:11.582Z,1.30
2023-03-31T14:29:01.929Z,1.70
2023-03-31T14:31:38.298Z,1.40
2023-03-31T14:34:25.209Z,1.10
2023-03-31T14:37:04.335Z,1.20
2023-03-31T14:39:37.586Z,1.40
2023-03-31T14:42:10.312Z,1.13
2023-03-31T14:44:37.341Z,1.10
2023-03-31T14:47:06.181Z,1.20
2023-03-31T14:49:38.645Z,1.00
2023-03-31T14:52:25.243Z,1.10
2023-03-31T14:54:53.287Z,1.00
2023-03-31T14:57:34.192Z,1.00
2023-03-31T15:00:06.066Z,1.30
2023-03-31T15:02:36.278Z,1.27
2023-03-31T15:05:09.805Z,1.17
2023-03-31T15:07:37.316Z,1.30
2023-03-31T15:10:05.388Z,1.03
2023-03-31T15:12:32.205Z,1.10
2023-03-31T15:15:04.446Z,1.80
2023-03-31T15:17:37.577Z,1.43
2023-03-31T15:20:27.983Z,1.40
2023-03-31T15:22:59.127Z,1.13
2023-03-31T15:25:34.043Z,1.33
2023-03-31T15:28:04.319Z,1.37
2023-03-31T15:30:31.248Z,1.23
2023-03-31T15:35:46.394Z,1.20
2023-03-31T15:38:18.595Z,1.37
2023-03-31T15:40:55.753Z,1.70
2023-03-31T15:43:52.872Z,1.57
2023-03-31T15:46:45.570Z,1.40
2023-03-31T15:49:23.208Z,1.60
2023-03-31T15:51:51.789Z,1.20
2023-03-31T15:54:35.847Z,1.40
2023-03-31T15:57:05.614Z,1.87
2023-03-31T15:59:55.420Z,1.37
2023-03-31T16:02:39.832Z,1.40
2023-03-31T16:05:10.966Z,1.37
2023-03-31T16:07:44.569Z,1.37
2023-03-31T16:10:21.675Z,1.50
2023-03-31T16:13:03.305Z,1.73
2023-03-31T16:15:44.659Z,1.70
2023-03-31T16:18:16.121Z,1.50
2023-03-31T16:20:50.340Z,1.93
2023-03-31T16:23:21.395Z,1.97
2023-03-31T16:25:48.426Z,1.63
2023-03-31T16:28:19.365Z,1.70
2023-03-31T16:30:46.466Z,1.50
2023-03-31T16:33:18.823Z,1.40
2023-03-31T16:35:55.973Z,1.80
2023-03-31T16:38:24.369Z,2.20
2023-03-31T16:40:53.569Z,2.20
2023-03-31T16:43:22.917Z,2.40
2023-03-31T16:45:52.170Z,1.90
2023-03-31T16:48:21.153Z,1.90
2023-03-31T16:50:51.267Z,1.87
2023-03-31T16:53:20.266Z,1.90
2023-03-31T16:55:47.184Z,2.50
2023-03-31T16:58:14.237Z,2.70
2023-03-31T17:00:41.936Z,2.33
2023-03-31T17:03:10.374Z,2.00
2023-03-31T17:05:42.133Z,1.70
2023-03-31T17:08:10.004Z,2.07
2023-03-31T17:10:38.132Z,2.53
2023-03-31T17:13:05.682Z,2.23
2023-03-31T17:15:34.960Z,2.13
2023-03-31T17:18:03.625Z,1.80
2023-03-31T17:20:31.416Z,1.63
2023-03-31T17:22:58.559Z,1.83
2023-03-31T17:25:25.666Z,1.67
2023-03-31T17:27:52.592Z,1.50
2023-03-31T17:30:19.490Z,1.70
2023-03-31T17:32:46.367Z,1.90
2023-03-31T17:35:20.294Z,2.07
2023-03-31T17:37:47.890Z,2.23
2023-03-31T17:40:15.237Z,1.77
2023-03-31T17:42:44.784Z,2.10
2023-03-31T17:45:12.687Z,1.90
2023-03-31T17:47:39.575Z,2.03
2023-03-31T17:50:06.894Z,2.07
2023-03-31T17:52:33.950Z,2.03
2023-03-31T17:55:00.494Z,2.10
2023-03-31T17:57:27.374Z,2.00
2023-03-31T17:59:54.333Z,1.93
2023-03-31T18:02:20.944Z,1.90
2023-03-31T18:04:47.818Z,1.80
2023-03-31T18:07:14.700Z,2.00
2023-03-31T18:09:41.289Z,1.80
2023-03-31T18:12:08.255Z,2.03
2023-03-31T18:14:35.013Z,1.97
2023-03-31T18:17:01.961Z,2.03
2023-03-31T18:19:28.573Z,1.90
2023-03-31T18:21:55.303Z,1.90
2023-03-31T18:24:22.552Z,1.90
2023-03-31T18:26:49.187Z,1.83
2023-03-31T18:29:16.328Z,1.83
2023-03-31T18:31:42.926Z,2.30
2023-03-31T18:34:09.864Z,2.13
2023-03-31T18:36:36.538Z,2.10
2023-03-31T18:39:04.198Z,2.47
2023-03-31T18:41:30.882Z,2.60
2023-03-31T18:43:57.511Z,2.50
2023-03-31T18:46:24.569Z,2.30
2023-03-31T18:48:51.363Z,2.60
2023-03-31T18:51:18.355Z,2.90
2023-03-31T18:53:44.976Z,3.13
2023-03-31T18:56:11.993Z,2.50
2023-03-31T18:58:38.681Z,2.57
2023-03-31T19:01:05.679Z,2.80
2023-03-31T19:03:32.337Z,2.90
2023-03-31T19:06:10.134Z,3.03
2023-03-31T19:08:37.526Z,3.50
2023-03-31T19:11:10.602Z,3.07
2023-03-31T19:13:38.170Z,3.65
2023-03-31T19:16:05.527Z,3.50
2023-03-31T19:18:32.665Z,3.70
2023-03-31T19:21:00.582Z,3.70
2023-03-31T19:23:27.187Z,3.80
2023-03-31T19:25:54.951Z,3.80
2023-03-31T19:28:22.959Z,3.80
2023-03-31T19:30:51.736Z,3.67
2023-03-31T19:33:19.694Z,4.03
2023-03-31T19:35:47.810Z,3.90
2023-03-31T19:38:15.005Z,4.30
2023-03-31T19:40:42.496Z,4.80
2023-03-31T19:43:20.070Z,4.20
2023-03-31T19:45:50.954Z,4.03
2023-03-31T19:48:18.404Z,4.40
2023-03-31T19:50:51.784Z,4.13
2023-03-31T19:53:19.611Z,4.50
2023-03-31T19:56:00.660Z,4.70
2023-03-31T19:58:28.726Z,4.57
2023-03-31T20:00:56.739Z,3.90
2023-03-31T20:03:25.881Z,3.47
2023-03-31T20:06:01.009Z,3.67
2023-03-31T20:08:27.582Z,3.77
2023-03-31T20:10:59.480Z,4.30
2023-03-31T20:13:26.321Z,2.90
2023-03-31T20:16:08.723Z,3.00
2023-03-31T20:18:37.157Z,3.10
2023-03-31T20:21:15.655Z,3.00
2023-03-31T20:23:43.684Z,3.57
2023-03-31T20:26:13.199Z,3.20
2023-03-31T20:28:40.968Z,3.30
2023-03-31T20:31:15.444Z,3.63
2023-03-31T20:33:43.602Z,3.17
2023-03-31T20:36:13.346Z,3.37
2023-03-31T20:38:42.264Z,3.30
2023-03-31T20:41:09.265Z,3.37
2023-03-31T20:43:36.601Z,2.73
2023-03-31T20:46:05.007Z,2.33
2023-03-31T20:48:34.747Z,2.80
2023-03-31T20:51:01.549Z,2.70
2023-03-31T20:53:28.343Z,3.00
2023-03-31T20:55:55.017Z,3.20
2023-03-31T20:58:21.689Z,3.13
2023-03-31T21:00:48.612Z,4.00
2023-03-31T21:03:15.696Z,3.90
2023-03-31T21:05:47.785Z,4.00
2023-03-31T21:08:14.368Z,4.00
2023-03-31T21:10:45.529Z,3.77
2023-03-31T21:13:15.277Z,3.80
2023-03-31T21:15:46.557Z,5.57
2023-03-31T21:18:13.205Z,4.60
2023-03-31T21:20:39.794Z,4.70
2023-03-31T21:23:06.361Z,4.40
2023-03-31T21:25:33.148Z,5.03
2023-03-31T21:27:59.782Z,4.90
2023-03-31T21:30:26.612Z,4.57
2023-03-31T21:32:53.870Z,4.30
2023-03-31T21:35:20.671Z,4.03
2023-03-31T21:37:47.482Z,3.77
2023-03-31T21:40:14.538Z,3.70
2023-03-31T21:42:41.190Z,3.90
2023-03-31T21:45:08.230Z,3.50
2023-03-31T21:47:34.935Z,3.47
2023-03-31T21:50:01.587Z,3.60
2023-03-31T21:52:28.252Z,3.40
2023-03-31T21:54:54.809Z,3.10
2023-03-31T21:57:21.621Z,3.23
2023-03-31T21:59:48.202Z,2.80
2023-03-31T22:02:14.759Z,3.07
2023-03-31T22:04:41.825Z,3.10
2023-03-31T22:07:08.417Z,3.07
2023-03-31T22:09:35.032Z,2.90
2023-03-31T22:12:02.111Z,2.93
2023-03-31T22:14:28.675Z,2.67
2023-03-31T22:16:55.222Z,2.93
2023-03-31T22:19:22.075Z,3.07
2023-03-31T22:21:49.904Z,3.10
2023-03-31T22:24:16.654Z,2.90
2023-03-31T22:26:43.221Z,3.40
2023-03-31T22:29:14.336Z,2.97
2023-03-31T22:31:41.087Z,2.93
2023-03-31T22:34:07.705Z,2.73
2023-03-31T22:36:34.259Z,3.13
2023-03-31T22:39:00.847Z,3.13
2023-03-31T22:41:27.420Z,2.50
2023-03-31T22:43:53.984Z,2.90
2023-03-31T22:46:20.679Z,3.00
2023-03-31T22:48:50.459Z,3.07
2023-03-31T22:51:17.855Z,3.07
2023-03-31T22:53:49.836Z,3.53
2023-03-31T22:56:16.400Z,2.93
2023-03-31T22:58:43.020Z,3.53
2023-03-31T23:01:15.415Z,3.67
2023-03-31T23:03:43.332Z,3.07
2023-03-31T23:06:10.471Z,3.00
2023-03-31T23:08:37.662Z,2.87
2023-03-31T23:11:07.508Z,3.27
2023-03-31T23:13:34.805Z,3.10
2023-03-31T23:16:28.905Z,2.80
2023-03-31T23:18:56.220Z,2.90
2023-03-31T23:21:26.060Z,3.10
2023-03-31T23:23:55.650Z,3.43
2023-03-31T23:26:24.526Z,3.00
2023-03-31T23:28:51.700Z,3.10
2023-03-31T23:31:20.835Z,3.30
2023-03-31T23:33:47.889Z,3.87
2023-03-31T23:36:17.510Z,3.13
2023-03-31T23:38:45.362Z,3.43
2023-03-31T23:41:12.243Z,3.07
2023-03-31T23:43:39.479Z,3.30
2023-03-31T23:46:07.126Z,3.10
2023-03-31T23:48:35.089Z,3.00
2023-03-31T23:51:02.178Z,3.17
2023-03-31T23:53:29.338Z,2.93
2023-03-31T23:56:01.270Z,2.70
2023-03-31T23:58:27.971Z,3.33
